sensor_id;sensor_type;location;lat;lon;timestamp;P1;durP1;ratioP1;P2;durP2;ratioP2
35444;SDS011;21562;49.476;6.086;2024-03-07T00:02:08;7.32;;;4.55;;
35444;SDS011;21562;49.476;6.086;2024-03-07T00:04:37;6.35;;;3.80;;
35444;SDS011;21562;49.476;6.086;2024-03-07T00:07:03;8.15;;;4.03;;
35444;SDS011;21562;49.476;6.086;2024-03-07T00:09:31;8.32;;;4.05;;
35444;SDS011;21562;49.476;6.086;2024-03-07T00:11:57;10.93;;;3.80;;
35444;SDS011;21562;49.476;6.086;2024-03-07T00:14:23;9.63;;;3.47;;
35444;SDS011;21562;49.476;6.086;2024-03-07T00:16:52;8.80;;;3.47;;
35444;SDS011;21562;49.476;6.086;2024-03-07T00:19:22;8.40;;;3.92;;
35444;SDS011;21562;49.476;6.086;2024-03-07T00:21:58;9.75;;;4.25;;
35444;SDS011;21562;49.476;6.086;2024-03-07T00:24:24;10.45;;;4.82;;
35444;SDS011;21562;49.476;6.086;2024-03-07T00:26:50;11.05;;;5.03;;
35444;SDS011;21562;49.476;6.086;2024-03-07T00:29:16;9.07;;;4.43;;
35444;SDS011;21562;49.476;6.086;2024-03-07T00:31:46;8.35;;;4.68;;
35444;SDS011;21562;49.476;6.086;2024-03-07T00:34:15;12.43;;;4.82;;
35444;SDS011;21562;49.476;6.086;2024-03-07T00:36:44;10.13;;;4.75;;
35444;SDS011;21562;49.476;6.086;2024-03-07T00:39:11;11.57;;;4.88;;
35444;SDS011;21562;49.476;6.086;2024-03-07T00:41:40;12.00;;;4.78;;
35444;SDS011;21562;49.476;6.086;2024-03-07T00:44:08;8.68;;;4.13;;
35444;SDS011;21562;49.476;6.086;2024-03-07T00:46:37;9.00;;;4.57;;
35444;SDS011;21562;49.476;6.086;2024-03-07T00:49:03;10.27;;;4.28;;
35444;SDS011;21562;49.476;6.086;2024-03-07T00:51:30;6.30;;;3.75;;
35444;SDS011;21562;49.476;6.086;2024-03-07T00:53:56;9.20;;;4.43;;
35444;SDS011;21562;49.476;6.086;2024-03-07T00:56:23;7.85;;;3.65;;
35444;SDS011;21562;49.476;6.086;2024-03-07T00:58:48;8.65;;;4.80;;
35444;SDS011;21562;49.476;6.086;2024-03-07T01:01:15;8.82;;;4.43;;
35444;SDS011;21562;49.476;6.086;2024-03-07T01:03:42;9.93;;;4.60;;
35444;SDS011;21562;49.476;6.086;2024-03-07T01:06:10;11.00;;;4.60;;
35444;SDS011;21562;49.476;6.086;2024-03-07T01:08:36;12.82;;;5.18;;
35444;SDS011;21562;49.476;6.086;2024-03-07T01:11:03;8.52;;;4.65;;
35444;SDS011;21562;49.476;6.086;2024-03-07T01:13:38;9.65;;;4.75;;
35444;SDS011;21562;49.476;6.086;2024-03-07T01:16:04;7.97;;;4.35;;
35444;SDS011;21562;49.476;6.086;2024-03-07T01:18:31;9.15;;;4.20;;
35444;SDS011;21562;49.476;6.086;2024-03-07T01:20:58;7.55;;;3.97;;
35444;SDS011;21562;49.476;6.086;2024-03-07T01:23:24;10.75;;;4.22;;
35444;SDS011;21562;49.476;6.086;2024-03-07T01:25:50;8.77;;;4.40;;
35444;SDS011;21562;49.476;6.086;2024-03-07T01:28:16;10.98;;;4.13;;
35444;SDS011;21562;49.476;6.086;2024-03-07T01:30:43;8.57;;;4.80;;
35444;SDS011;21562;49.476;6.086;2024-03-07T01:33:09;10.10;;;4.90;;
35444;SDS011;21562;49.476;6.086;2024-03-07T01:35:34;10.70;;;4.50;;
35444;SDS011;21562;49.476;6.086;2024-03-07T01:38:01;8.45;;;4.07;;
35444;SDS011;21562;49.476;6.086;2024-03-07T01:40:28;12.30;;;4.97;;
35444;SDS011;21562;49.476;6.086;2024-03-07T01:42:54;10.85;;;5.25;;
35444;SDS011;21562;49.476;6.086;2024-03-07T01:45:20;13.73;;;5.38;;
35444;SDS011;21562;49.476;6.086;2024-03-07T01:47:46;12.70;;;5.13;;
35444;SDS011;21562;49.476;6.086;2024-03-07T01:50:12;11.30;;;5.20;;
35444;SDS011;21562;49.476;6.086;2024-03-07T01:52:39;11.43;;;5.45;;
35444;SDS011;21562;49.476;6.086;2024-03-07T01:55:06;11.80;;;5.93;;
35444;SDS011;21562;49.476;6.086;2024-03-07T01:57:32;13.30;;;6.10;;
35444;SDS011;21562;49.476;6.086;2024-03-07T02:00:00;12.52;;;5.85;;
35444;SDS011;21562;49.476;6.086;2024-03-07T02:02:29;13.05;;;6.57;;
35444;SDS011;21562;49.476;6.086;2024-03-07T02:04:55;11.02;;;6.10;;
35444;SDS011;21562;49.476;6.086;2024-03-07T02:07:21;11.98;;;6.18;;
35444;SDS011;21562;49.476;6.086;2024-03-07T02:09:46;13.30;;;6.55;;
35444;SDS011;21562;49.476;6.086;2024-03-07T02:12:12;17.55;;;6.10;;
35444;SDS011;21562;49.476;6.086;2024-03-07T02:14:38;17.35;;;6.40;;
35444;SDS011;21562;49.476;6.086;2024-03-07T02:17:03;16.75;;;5.68;;
35444;SDS011;21562;49.476;6.086;2024-03-07T02:19:29;17.30;;;6.63;;
35444;SDS011;21562;49.476;6.086;2024-03-07T02:21:57;13.35;;;6.70;;
35444;SDS011;21562;49.476;6.086;2024-03-07T02:24:24;10.63;;;5.60;;
35444;SDS011;21562;49.476;6.086;2024-03-07T02:26:49;11.57;;;5.95;;
35444;SDS011;21562;49.476;6.086;2024-03-07T02:29:15;15.00;;;6.20;;
35444;SDS011;21562;49.476;6.086;2024-03-07T02:31:41;15.02;;;5.97;;
35444;SDS011;21562;49.476;6.086;2024-03-07T02:34:06;8.90;;;5.20;;
35444;SDS011;21562;49.476;6.086;2024-03-07T02:36:32;11.20;;;5.95;;
35444;SDS011;21562;49.476;6.086;2024-03-07T02:38:59;12.95;;;6.78;;
35444;SDS011;21562;49.476;6.086;2024-03-07T02:41:25;12.38;;;6.47;;
35444;SDS011;21562;49.476;6.086;2024-03-07T02:43:51;18.00;;;7.32;;
35444;SDS011;21562;49.476;6.086;2024-03-07T02:46:18;17.92;;;7.85;;
35444;SDS011;21562;49.476;6.086;2024-03-07T02:48:44;19.77;;;8.00;;
35444;SDS011;21562;49.476;6.086;2024-03-07T02:51:10;14.02;;;6.80;;
35444;SDS011;21562;49.476;6.086;2024-03-07T02:53:36;14.73;;;6.95;;
35444;SDS011;21562;49.476;6.086;2024-03-07T02:56:03;14.95;;;7.80;;
35444;SDS011;21562;49.476;6.086;2024-03-07T02:58:33;14.98;;;7.25;;
35444;SDS011;21562;49.476;6.086;2024-03-07T03:00:59;13.15;;;6.82;;
35444;SDS011;21562;49.476;6.086;2024-03-07T03:03:28;14.95;;;7.50;;
35444;SDS011;21562;49.476;6.086;2024-03-07T03:05:56;16.45;;;7.30;;
35444;SDS011;21562;49.476;6.086;2024-03-07T03:08:22;21.73;;;9.00;;
35444;SDS011;21562;49.476;6.086;2024-03-07T03:10:49;12.75;;;7.10;;
35444;SDS011;21562;49.476;6.086;2024-03-07T03:13:18;14.68;;;7.80;;
35444;SDS011;21562;49.476;6.086;2024-03-07T03:15:43;20.27;;;8.18;;
35444;SDS011;21562;49.476;6.086;2024-03-07T03:18:09;16.20;;;8.07;;
35444;SDS011;21562;49.476;6.086;2024-03-07T03:20:35;14.45;;;7.93;;
35444;SDS011;21562;49.476;6.086;2024-03-07T03:23:03;17.02;;;8.32;;
35444;SDS011;21562;49.476;6.086;2024-03-07T03:25:36;21.08;;;9.25;;
35444;SDS011;21562;49.476;6.086;2024-03-07T03:28:03;19.88;;;9.50;;
35444;SDS011;21562;49.476;6.086;2024-03-07T03:30:30;21.40;;;9.15;;
35444;SDS011;21562;49.476;6.086;2024-03-07T03:32:57;21.67;;;9.57;;
35444;SDS011;21562;49.476;6.086;2024-03-07T03:35:24;17.88;;;9.68;;
35444;SDS011;21562;49.476;6.086;2024-03-07T03:37:49;20.42;;;10.32;;
35444;SDS011;21562;49.476;6.086;2024-03-07T03:40:15;26.15;;;11.70;;
35444;SDS011;21562;49.476;6.086;2024-03-07T03:42:41;22.60;;;10.80;;
35444;SDS011;21562;49.476;6.086;2024-03-07T03:45:08;22.10;;;11.05;;
35444;SDS011;21562;49.476;6.086;2024-03-07T03:47:39;23.42;;;12.20;;
35444;SDS011;21562;49.476;6.086;2024-03-07T03:50:07;23.88;;;12.65;;
35444;SDS011;21562;49.476;6.086;2024-03-07T03:52:34;25.27;;;13.05;;
35444;SDS011;21562;49.476;6.086;2024-03-07T03:55:03;25.95;;;13.18;;
35444;SDS011;21562;49.476;6.086;2024-03-07T03:57:30;21.73;;;12.00;;
35444;SDS011;21562;49.476;6.086;2024-03-07T03:59:56;20.27;;;11.27;;
35444;SDS011;21562;49.476;6.086;2024-03-07T04:02:23;20.63;;;10.20;;
35444;SDS011;21562;49.476;6.086;2024-03-07T04:04:49;23.45;;;11.90;;
35444;SDS011;21562;49.476;6.086;2024-03-07T04:07:16;22.33;;;11.23;;
35444;SDS011;21562;49.476;6.086;2024-03-07T04:09:42;27.10;;;12.32;;
35444;SDS011;21562;49.476;6.086;2024-03-07T04:12:09;29.75;;;13.52;;
35444;SDS011;21562;49.476;6.086;2024-03-07T04:14:41;25.33;;;13.10;;
35444;SDS011;21562;49.476;6.086;2024-03-07T04:17:11;26.35;;;13.70;;
35444;SDS011;21562;49.476;6.086;2024-03-07T04:19:40;32.58;;;15.90;;
35444;SDS011;21562;49.476;6.086;2024-03-07T04:22:06;30.40;;;16.00;;
35444;SDS011;21562;49.476;6.086;2024-03-07T04:24:33;37.47;;;17.25;;
35444;SDS011;21562;49.476;6.086;2024-03-07T04:26:59;37.35;;;16.75;;
35444;SDS011;21562;49.476;6.086;2024-03-07T04:29:26;43.97;;;19.20;;
35444;SDS011;21562;49.476;6.086;2024-03-07T04:31:52;37.60;;;18.77;;
35444;SDS011;21562;49.476;6.086;2024-03-07T04:34:18;51.15;;;21.85;;
35444;SDS011;21562;49.476;6.086;2024-03-07T04:36:43;42.20;;;19.85;;
35444;SDS011;21562;49.476;6.086;2024-03-07T04:39:09;41.85;;;20.90;;
35444;SDS011;21562;49.476;6.086;2024-03-07T04:41:50;44.90;;;22.40;;
35444;SDS011;21562;49.476;6.086;2024-03-07T04:44:17;40.83;;;20.35;;
35444;SDS011;21562;49.476;6.086;2024-03-07T04:46:43;46.45;;;21.80;;
35444;SDS011;21562;49.476;6.086;2024-03-07T04:49:09;53.95;;;25.27;;
35444;SDS011;21562;49.476;6.086;2024-03-07T04:51:35;50.72;;;24.27;;
35444;SDS011;21562;49.476;6.086;2024-03-07T04:54:01;49.95;;;23.50;;
35444;SDS011;21562;49.476;6.086;2024-03-07T04:56:26;52.03;;;23.63;;
35444;SDS011;21562;49.476;6.086;2024-03-07T04:58:52;52.85;;;24.48;;
35444;SDS011;21562;49.476;6.086;2024-03-07T05:01:19;51.78;;;23.70;;
35444;SDS011;21562;49.476;6.086;2024-03-07T05:03:45;54.75;;;24.00;;
35444;SDS011;21562;49.476;6.086;2024-03-07T05:06:11;51.92;;;24.00;;
35444;SDS011;21562;49.476;6.086;2024-03-07T05:08:37;50.25;;;24.15;;
35444;SDS011;21562;49.476;6.086;2024-03-07T05:11:03;48.58;;;24.27;;
35444;SDS011;21562;49.476;6.086;2024-03-07T05:13:29;54.05;;;25.10;;
35444;SDS011;21562;49.476;6.086;2024-03-07T05:15:56;50.30;;;23.90;;
35444;SDS011;21562;49.476;6.086;2024-03-07T05:18:23;47.58;;;23.45;;
35444;SDS011;21562;49.476;6.086;2024-03-07T05:20:48;49.03;;;23.23;;
35444;SDS011;21562;49.476;6.086;2024-03-07T05:23:14;54.83;;;23.50;;
35444;SDS011;21562;49.476;6.086;2024-03-07T05:25:40;49.72;;;24.65;;
35444;SDS011;21562;49.476;6.086;2024-03-07T05:28:05;56.58;;;24.98;;
35444;SDS011;21562;49.476;6.086;2024-03-07T05:30:31;49.92;;;23.98;;
35444;SDS011;21562;49.476;6.086;2024-03-07T05:32:58;47.83;;;24.02;;
35444;SDS011;21562;49.476;6.086;2024-03-07T05:35:25;48.15;;;23.02;;
35444;SDS011;21562;49.476;6.086;2024-03-07T05:37:54;48.40;;;22.60;;
35444;SDS011;21562;49.476;6.086;2024-03-07T05:40:21;45.05;;;22.48;;
35444;SDS011;21562;49.476;6.086;2024-03-07T05:42:47;46.85;;;22.58;;
35444;SDS011;21562;49.476;6.086;2024-03-07T05:45:13;48.60;;;22.35;;
35444;SDS011;21562;49.476;6.086;2024-03-07T05:47:40;45.67;;;20.80;;
35444;SDS011;21562;49.476;6.086;2024-03-07T05:50:06;52.40;;;24.08;;
35444;SDS011;21562;49.476;6.086;2024-03-07T05:52:36;44.33;;;23.13;;
35444;SDS011;21562;49.476;6.086;2024-03-07T05:55:02;49.03;;;25.38;;
35444;SDS011;21562;49.476;6.086;2024-03-07T05:57:29;47.22;;;22.88;;
35444;SDS011;21562;49.476;6.086;2024-03-07T05:59:54;55.17;;;25.60;;
35444;SDS011;21562;49.476;6.086;2024-03-07T06:02:21;48.35;;;22.98;;
35444;SDS011;21562;49.476;6.086;2024-03-07T06:04:47;45.10;;;22.98;;
35444;SDS011;21562;49.476;6.086;2024-03-07T06:07:13;44.72;;;22.42;;
35444;SDS011;21562;49.476;6.086;2024-03-07T06:09:38;50.05;;;24.38;;
35444;SDS011;21562;49.476;6.086;2024-03-07T06:12:04;53.15;;;24.27;;
35444;SDS011;21562;49.476;6.086;2024-03-07T06:14:33;51.88;;;23.67;;
35444;SDS011;21562;49.476;6.086;2024-03-07T06:16:58;51.90;;;26.55;;
35444;SDS011;21562;49.476;6.086;2024-03-07T06:19:26;51.35;;;24.48;;
35444;SDS011;21562;49.476;6.086;2024-03-07T06:21:51;50.88;;;27.17;;
35444;SDS011;21562;49.476;6.086;2024-03-07T06:24:19;51.13;;;24.95;;
35444;SDS011;21562;49.476;6.086;2024-03-07T06:26:46;58.92;;;25.38;;
35444;SDS011;21562;49.476;6.086;2024-03-07T06:29:15;60.28;;;27.88;;
35444;SDS011;21562;49.476;6.086;2024-03-07T06:31:42;55.88;;;27.00;;
35444;SDS011;21562;49.476;6.086;2024-03-07T06:34:08;56.30;;;27.60;;
35444;SDS011;21562;49.476;6.086;2024-03-07T06:36:34;58.38;;;27.08;;
35444;SDS011;21562;49.476;6.086;2024-03-07T06:39:01;49.25;;;25.08;;
35444;SDS011;21562;49.476;6.086;2024-03-07T06:41:31;59.35;;;25.50;;
35444;SDS011;21562;49.476;6.086;2024-03-07T06:43:57;66.50;;;27.90;;
35444;SDS011;21562;49.476;6.086;2024-03-07T06:46:23;58.78;;;27.08;;
35444;SDS011;21562;49.476;6.086;2024-03-07T06:48:49;51.08;;;25.42;;
35444;SDS011;21562;49.476;6.086;2024-03-07T06:51:16;61.67;;;27.13;;
35444;SDS011;21562;49.476;6.086;2024-03-07T06:53:43;56.83;;;26.65;;
35444;SDS011;21562;49.476;6.086;2024-03-07T06:56:08;67.45;;;27.70;;
35444;SDS011;21562;49.476;6.086;2024-03-07T06:58:35;68.32;;;28.75;;
35444;SDS011;21562;49.476;6.086;2024-03-07T07:01:01;73.45;;;29.55;;
35444;SDS011;21562;49.476;6.086;2024-03-07T07:03:32;61.15;;;28.15;;
35444;SDS011;21562;49.476;6.086;2024-03-07T07:05:57;67.07;;;28.15;;
35444;SDS011;21562;49.476;6.086;2024-03-07T07:08:23;60.70;;;28.60;;
35444;SDS011;21562;49.476;6.086;2024-03-07T07:10:49;64.82;;;28.60;;
35444;SDS011;21562;49.476;6.086;2024-03-07T07:13:15;69.10;;;29.40;;
35444;SDS011;21562;49.476;6.086;2024-03-07T07:15:41;62.33;;;29.27;;
35444;SDS011;21562;49.476;6.086;2024-03-07T07:18:08;71.03;;;29.25;;
35444;SDS011;21562;49.476;6.086;2024-03-07T07:20:35;68.18;;;28.48;;
35444;SDS011;21562;49.476;6.086;2024-03-07T07:23:01;69.22;;;30.13;;
35444;SDS011;21562;49.476;6.086;2024-03-07T07:25:28;68.97;;;28.85;;
35444;SDS011;21562;49.476;6.086;2024-03-07T07:27:54;65.93;;;30.02;;
35444;SDS011;21562;49.476;6.086;2024-03-07T07:30:20;66.53;;;29.60;;
35444;SDS011;21562;49.476;6.086;2024-03-07T07:32:52;68.20;;;30.88;;
35444;SDS011;21562;49.476;6.086;2024-03-07T07:35:19;61.90;;;30.17;;
35444;SDS011;21562;49.476;6.086;2024-03-07T07:37:46;61.97;;;29.27;;
35444;SDS011;21562;49.476;6.086;2024-03-07T07:40:14;61.72;;;28.08;;
35444;SDS011;21562;49.476;6.086;2024-03-07T07:42:46;71.93;;;30.90;;
35444;SDS011;21562;49.476;6.086;2024-03-07T07:45:14;64.85;;;29.67;;
35444;SDS011;21562;49.476;6.086;2024-03-07T07:50:11;68.80;;;29.42;;
35444;SDS011;21562;49.476;6.086;2024-03-07T07:52:45;71.00;;;29.75;;
35444;SDS011;21562;49.476;6.086;2024-03-07T07:57:46;65.47;;;28.77;;
35444;SDS011;21562;49.476;6.086;2024-03-07T08:00:13;71.22;;;29.73;;
35444;SDS011;21562;49.476;6.086;2024-03-07T08:02:56;67.35;;;30.10;;
35444;SDS011;21562;49.476;6.086;2024-03-07T08:05:30;71.15;;;29.95;;
35444;SDS011;21562;49.476;6.086;2024-03-07T08:08:04;65.22;;;28.05;;
35444;SDS011;21562;49.476;6.086;2024-03-07T08:10:32;65.53;;;28.45;;
35444;SDS011;21562;49.476;6.086;2024-03-07T08:13:00;56.92;;;28.80;;
35444;SDS011;21562;49.476;6.086;2024-03-07T08:15:28;61.80;;;29.92;;
35444;SDS011;21562;49.476;6.086;2024-03-07T08:17:54;66.65;;;28.88;;
35444;SDS011;21562;49.476;6.086;2024-03-07T08:20:21;59.63;;;28.55;;
35444;SDS011;21562;49.476;6.086;2024-03-07T08:22:48;67.53;;;28.83;;
35444;SDS011;21562;49.476;6.086;2024-03-07T08:25:18;62.17;;;29.15;;
35444;SDS011;21562;49.476;6.086;2024-03-07T08:27:47;56.47;;;28.52;;
35444;SDS011;21562;49.476;6.086;2024-03-07T08:30:14;58.78;;;29.63;;
35444;SDS011;21562;49.476;6.086;2024-03-07T08:35:06;55.42;;;26.67;;
35444;SDS011;21562;49.476;6.086;2024-03-07T08:37:35;59.05;;;28.13;;
35444;SDS011;21562;49.476;6.086;2024-03-07T08:43:23;53.30;;;24.95;;
35444;SDS011;21562;49.476;6.086;2024-03-07T08:48:24;41.10;;;19.63;;
35444;SDS011;21562;49.476;6.086;2024-03-07T08:50:50;38.67;;;17.52;;
35444;SDS011;21562;49.476;6.086;2024-03-07T08:53:16;48.65;;;20.33;;
35444;SDS011;21562;49.476;6.086;2024-03-07T08:55:43;46.90;;;24.90;;
35444;SDS011;21562;49.476;6.086;2024-03-07T08:58:15;42.17;;;21.48;;
35444;SDS011;21562;49.476;6.086;2024-03-07T09:00:40;42.78;;;20.20;;
35444;SDS011;21562;49.476;6.086;2024-03-07T09:03:10;42.97;;;19.60;;
35444;SDS011;21562;49.476;6.086;2024-03-07T09:08:50;36.60;;;16.58;;
35444;SDS011;21562;49.476;6.086;2024-03-07T09:11:15;40.88;;;18.23;;
35444;SDS011;21562;49.476;6.086;2024-03-07T09:13:41;40.55;;;17.75;;
35444;SDS011;21562;49.476;6.086;2024-03-07T09:16:07;33.50;;;16.98;;
35444;SDS011;21562;49.476;6.086;2024-03-07T09:18:51;34.08;;;20.65;;
35444;SDS011;21562;49.476;6.086;2024-03-07T09:34:05;39.80;;;20.10;;
35444;SDS011;21562;49.476;6.086;2024-03-07T09:36:36;42.92;;;21.20;;
35444;SDS011;21562;49.476;6.086;2024-03-07T09:42:25;43.83;;;21.38;;
35444;SDS011;21562;49.476;6.086;2024-03-07T09:44:55;46.00;;;21.52;;
35444;SDS011;21562;49.476;6.086;2024-03-07T09:47:26;43.85;;;22.92;;
35444;SDS011;21562;49.476;6.086;2024-03-07T09:49:58;45.67;;;21.67;;
35444;SDS011;21562;49.476;6.086;2024-03-07T09:52:38;53.25;;;24.13;;
35444;SDS011;21562;49.476;6.086;2024-03-07T09:55:11;56.03;;;23.52;;
35444;SDS011;21562;49.476;6.086;2024-03-07T09:57:38;47.35;;;22.30;;
35444;SDS011;21562;49.476;6.086;2024-03-07T10:00:05;35.55;;;14.73;;
35444;SDS011;21562;49.476;6.086;2024-03-07T10:02:34;45.33;;;22.25;;
35444;SDS011;21562;49.476;6.086;2024-03-07T10:05:06;39.42;;;21.35;;
35444;SDS011;21562;49.476;6.086;2024-03-07T10:07:35;38.50;;;21.83;;
35444;SDS011;21562;49.476;6.086;2024-03-07T10:10:01;35.58;;;17.20;;
35444;SDS011;21562;49.476;6.086;2024-03-07T10:12:35;39.07;;;21.60;;
35444;SDS011;21562;49.476;6.086;2024-03-07T10:15:03;51.28;;;22.38;;
35444;SDS011;21562;49.476;6.086;2024-03-07T11:01:04;43.38;;;21.45;;
35444;SDS011;21562;49.476;6.086;2024-03-07T11:03:36;44.47;;;23.50;;
35444;SDS011;21562;49.476;6.086;2024-03-07T11:06:09;50.03;;;26.35;;
35444;SDS011;21562;49.476;6.086;2024-03-07T11:08:41;40.13;;;22.27;;
35444;SDS011;21562;49.476;6.086;2024-03-07T11:11:10;38.03;;;20.42;;
35444;SDS011;21562;49.476;6.086;2024-03-07T11:13:39;39.47;;;20.65;;
35444;SDS011;21562;49.476;6.086;2024-03-07T11:16:09;36.88;;;19.48;;
35444;SDS011;21562;49.476;6.086;2024-03-07T11:18:35;37.25;;;20.23;;
35444;SDS011;21562;49.476;6.086;2024-03-07T11:58:06;44.13;;;20.20;;
35444;SDS011;21562;49.476;6.086;2024-03-07T12:00:59;44.33;;;19.13;;
35444;SDS011;21562;49.476;6.086;2024-03-07T12:03:41;36.30;;;19.23;;
35444;SDS011;21562;49.476;6.086;2024-03-07T12:06:08;34.53;;;19.42;;
35444;SDS011;21562;49.476;6.086;2024-03-07T12:08:37;35.33;;;19.42;;
35444;SDS011;21562;49.476;6.086;2024-03-07T12:19:45;33.45;;;17.70;;
35444;SDS011;21562;49.476;6.086;2024-03-07T12:22:14;43.53;;;18.63;;
35444;SDS011;21562;49.476;6.086;2024-03-07T12:24:47;35.33;;;18.63;;
35444;SDS011;21562;49.476;6.086;2024-03-07T12:27:35;37.15;;;18.38;;
35444;SDS011;21562;49.476;6.086;2024-03-07T12:30:03;30.15;;;17.50;;
35444;SDS011;21562;49.476;6.086;2024-03-07T12:32:48;31.42;;;17.65;;
35444;SDS011;21562;49.476;6.086;2024-03-07T12:35:14;37.08;;;18.30;;
35444;SDS011;21562;49.476;6.086;2024-03-07T12:37:40;33.67;;;17.75;;
35444;SDS011;21562;49.476;6.086;2024-03-07T12:40:13;37.20;;;16.95;;
35444;SDS011;21562;49.476;6.086;2024-03-07T12:42:47;32.55;;;17.20;;
35444;SDS011;21562;49.476;6.086;2024-03-07T12:45:16;28.35;;;15.75;;
35444;SDS011;21562;49.476;6.086;2024-03-07T12:47:48;35.10;;;16.55;;
35444;SDS011;21562;49.476;6.086;2024-03-07T12:50:27;27.88;;;15.52;;
35444;SDS011;21562;49.476;6.086;2024-03-07T12:52:53;26.67;;;15.30;;
35444;SDS011;21562;49.476;6.086;2024-03-07T12:55:21;26.52;;;16.27;;
35444;SDS011;21562;49.476;6.086;2024-03-07T12:57:48;26.65;;;16.15;;
35444;SDS011;21562;49.476;6.086;2024-03-07T13:00:20;34.35;;;17.50;;
35444;SDS011;21562;49.476;6.086;2024-03-07T13:02:46;38.75;;;16.02;;
35444;SDS011;21562;49.476;6.086;2024-03-07T13:05:12;25.80;;;15.38;;
35444;SDS011;21562;49.476;6.086;2024-03-07T13:07:47;28.80;;;16.20;;
35444;SDS011;21562;49.476;6.086;2024-03-07T13:10:19;26.95;;;15.73;;
35444;SDS011;21562;49.476;6.086;2024-03-07T13:12:48;29.35;;;15.85;;
35444;SDS011;21562;49.476;6.086;2024-03-07T13:15:17;32.47;;;16.40;;
35444;SDS011;21562;49.476;6.086;2024-03-07T13:17:43;26.73;;;15.32;;
35444;SDS011;21562;49.476;6.086;2024-03-07T13:20:10;37.78;;;14.65;;
35444;SDS011;21562;49.476;6.086;2024-03-07T13:22:43;36.13;;;13.23;;
35444;SDS011;21562;49.476;6.086;2024-03-07T13:25:30;31.83;;;11.60;;
35444;SDS011;21562;49.476;6.086;2024-03-07T13:28:01;32.47;;;16.38;;
35444;SDS011;21562;49.476;6.086;2024-03-07T13:30:28;30.77;;;16.63;;
35444;SDS011;21562;49.476;6.086;2024-03-07T13:32:57;35.42;;;15.75;;
35444;SDS011;21562;49.476;6.086;2024-03-07T13:35:24;28.05;;;16.30;;
35444;SDS011;21562;49.476;6.086;2024-03-07T13:37:51;33.10;;;16.35;;
35444;SDS011;21562;49.476;6.086;2024-03-07T13:40:25;25.48;;;14.50;;
35444;SDS011;21562;49.476;6.086;2024-03-07T13:42:55;25.10;;;15.30;;
35444;SDS011;21562;49.476;6.086;2024-03-07T13:45:24;33.00;;;16.98;;
35444;SDS011;21562;49.476;6.086;2024-03-07T13:47:52;28.48;;;15.18;;
35444;SDS011;21562;49.476;6.086;2024-03-07T13:50:19;34.53;;;14.63;;
35444;SDS011;21562;49.476;6.086;2024-03-07T13:52:52;38.03;;;15.95;;
35444;SDS011;21562;49.476;6.086;2024-03-07T13:58:37;26.50;;;14.43;;
35444;SDS011;21562;49.476;6.086;2024-03-07T14:27:37;24.65;;;14.05;;
35444;SDS011;21562;49.476;6.086;2024-03-07T14:33:08;24.48;;;13.63;;
35444;SDS011;21562;49.476;6.086;2024-03-07T14:38:54;25.58;;;12.85;;
35444;SDS011;21562;49.476;6.086;2024-03-07T14:44:24;23.15;;;13.43;;
35444;SDS011;21562;49.476;6.086;2024-03-07T14:46:54;22.83;;;13.85;;
35444;SDS011;21562;49.476;6.086;2024-03-07T14:49:24;25.73;;;13.07;;
35444;SDS011;21562;49.476;6.086;2024-03-07T14:51:50;23.65;;;13.27;;
35444;SDS011;21562;49.476;6.086;2024-03-07T14:54:19;25.50;;;12.45;;
35444;SDS011;21562;49.476;6.086;2024-03-07T14:56:45;21.13;;;12.10;;
35444;SDS011;21562;49.476;6.086;2024-03-07T14:59:12;19.63;;;12.27;;
35444;SDS011;21562;49.476;6.086;2024-03-07T15:01:38;19.02;;;11.65;;
35444;SDS011;21562;49.476;6.086;2024-03-07T15:04:04;18.58;;;11.38;;
35444;SDS011;21562;49.476;6.086;2024-03-07T15:06:32;21.90;;;12.27;;
35444;SDS011;21562;49.476;6.086;2024-03-07T15:08:59;20.63;;;11.80;;
35444;SDS011;21562;49.476;6.086;2024-03-07T15:11:27;17.63;;;10.15;;
35444;SDS011;21562;49.476;6.086;2024-03-07T15:13:59;20.50;;;9.52;;
35444;SDS011;21562;49.476;6.086;2024-03-07T15:16:26;24.90;;;10.05;;
35444;SDS011;21562;49.476;6.086;2024-03-07T15:18:53;18.55;;;9.27;;
35444;SDS011;21562;49.476;6.086;2024-03-07T15:21:19;22.02;;;11.60;;
35444;SDS011;21562;49.476;6.086;2024-03-07T15:23:45;23.42;;;12.43;;
35444;SDS011;21562;49.476;6.086;2024-03-07T15:26:11;19.73;;;11.68;;
35444;SDS011;21562;49.476;6.086;2024-03-07T15:28:37;18.83;;;11.00;;
35444;SDS011;21562;49.476;6.086;2024-03-07T15:31:03;20.08;;;12.55;;
35444;SDS011;21562;49.476;6.086;2024-03-07T15:33:32;23.75;;;12.38;;
35444;SDS011;21562;49.476;6.086;2024-03-07T15:35:58;21.17;;;12.88;;
35444;SDS011;21562;49.476;6.086;2024-03-07T15:38:26;19.23;;;12.27;;
35444;SDS011;21562;49.476;6.086;2024-03-07T15:40:59;23.33;;;13.00;;
35444;SDS011;21562;49.476;6.086;2024-03-07T15:43:26;21.80;;;12.05;;
35444;SDS011;21562;49.476;6.086;2024-03-07T15:45:53;21.73;;;12.40;;
35444;SDS011;21562;49.476;6.086;2024-03-07T15:48:21;18.15;;;11.63;;
35444;SDS011;21562;49.476;6.086;2024-03-07T15:50:49;27.90;;;13.57;;
35444;SDS011;21562;49.476;6.086;2024-03-07T15:53:16;20.40;;;13.45;;
35444;SDS011;21562;49.476;6.086;2024-03-07T15:55:42;24.77;;;13.73;;
35444;SDS011;21562;49.476;6.086;2024-03-07T15:58:08;24.02;;;14.80;;
35444;SDS011;21562;49.476;6.086;2024-03-07T16:00:35;24.83;;;14.65;;
35444;SDS011;21562;49.476;6.086;2024-03-07T16:03:06;25.65;;;14.90;;
35444;SDS011;21562;49.476;6.086;2024-03-07T16:05:35;29.05;;;15.88;;
35444;SDS011;21562;49.476;6.086;2024-03-07T16:08:03;23.00;;;14.00;;
35444;SDS011;21562;49.476;6.086;2024-03-07T16:10:34;23.48;;;13.93;;
35444;SDS011;21562;49.476;6.086;2024-03-07T16:13:05;20.77;;;13.00;;
35444;SDS011;21562;49.476;6.086;2024-03-07T16:15:33;19.02;;;11.73;;
35444;SDS011;21562;49.476;6.086;2024-03-07T16:18:02;24.08;;;10.75;;
35444;SDS011;21562;49.476;6.086;2024-03-07T16:20:30;22.52;;;13.75;;
35444;SDS011;21562;49.476;6.086;2024-03-07T16:23:01;24.83;;;15.45;;
35444;SDS011;21562;49.476;6.086;2024-03-07T16:25:31;24.80;;;13.68;;
35444;SDS011;21562;49.476;6.086;2024-03-07T16:27:59;23.30;;;15.20;;
35444;SDS011;21562;49.476;6.086;2024-03-07T16:30:25;24.13;;;14.45;;
35444;SDS011;21562;49.476;6.086;2024-03-07T16:32:54;25.77;;;14.65;;
35444;SDS011;21562;49.476;6.086;2024-03-07T16:35:23;24.60;;;15.48;;
35444;SDS011;21562;49.476;6.086;2024-03-07T16:37:50;21.98;;;14.07;;
35444;SDS011;21562;49.476;6.086;2024-03-07T16:40:18;24.83;;;14.93;;
35444;SDS011;21562;49.476;6.086;2024-03-07T16:42:47;25.52;;;15.02;;
35444;SDS011;21562;49.476;6.086;2024-03-07T16:45:19;26.13;;;14.48;;
35444;SDS011;21562;49.476;6.086;2024-03-07T16:47:55;24.65;;;14.27;;
35444;SDS011;21562;49.476;6.086;2024-03-07T16:50:23;25.77;;;14.63;;
35444;SDS011;21562;49.476;6.086;2024-03-07T16:52:54;25.75;;;14.82;;
35444;SDS011;21562;49.476;6.086;2024-03-07T16:55:22;29.25;;;15.48;;
35444;SDS011;21562;49.476;6.086;2024-03-07T16:57:49;30.33;;;15.40;;
35444;SDS011;21562;49.476;6.086;2024-03-07T17:00:17;23.65;;;14.73;;
35444;SDS011;21562;49.476;6.086;2024-03-07T17:02:55;29.30;;;15.13;;
35444;SDS011;21562;49.476;6.086;2024-03-07T17:05:24;26.42;;;14.90;;
35444;SDS011;21562;49.476;6.086;2024-03-07T17:07:51;27.63;;;14.35;;
35444;SDS011;21562;49.476;6.086;2024-03-07T17:10:17;25.38;;;15.75;;
35444;SDS011;21562;49.476;6.086;2024-03-07T17:12:44;27.17;;;15.32;;